Home > Products > Valid Products > TAF

000
FTUS44 KEWX 301700
TAFAUS
TAF
KAUS 301726Z 3018/0124 16005KT P6SM SCT045
     FM010200 17005KT P6SM FEW250
     FM010900 18004KT 5SM BR BKN015
     FM011200 16004KT 3SM BR OVC010
     FM011600 18008KT P6SM SCT035=



000
FTUS44 KEWX 301700
TAFSAT
TAF
KSAT 301726Z 3018/0124 12006KT P6SM SCT045
     FM010200 16005KT P6SM FEW250
     FM010800 16005KT P6SM BKN015
     FM011100 17005KT 5SM BR OVC010
     FM011600 18008KT P6SM SCT035=



000
FTUS44 KEWX 301700
TAFDRT
TAF
KDRT 301726Z 3018/0118 15013KT P6SM FEW050
     FM010200 12008KT P6SM FEW250
     FM011000 11008KT P6SM SCT015
     FM011500 13011KT P6SM FEW030=



000
FTUS44 KEWX 301300 AAA
TAFSAT
TAF AMD
KSAT 301304Z 3013/0118 VRB03KT P6SM SKC
     FM301700 14009KT P6SM SCT050
     FM010800 16007KT P6SM BKN015
     FM011100 17005KT 5SM BR OVC010=



000
FTUS44 KEWX 301100
TAFSAT
TAF
KSAT 301136Z 3012/0118 VRB03KT P6SM SCT012
      TEMPO 3012/3014 BKN012
     FM301700 14009KT P6SM SCT050
     FM010800 16007KT P6SM BKN015
     FM011100 17005KT 5SM BR OVC010=



000
FTUS44 KEWX 301100
TAFDRT
TAF
KDRT 301136Z 3012/0112 09006KT P6SM FEW120
     FM301600 13008KT P6SM SCT040 SCT120
     FM010200 09005KT P6SM FEW150=



000
FTUS44 KEWX 301100
TAFAUS
TAF
KAUS 301136Z 3012/0118 VRB03KT P6SM FEW100
     FM301700 15007KT P6SM SCT050
     FM010900 17003KT 5SM BR BKN015
     FM011200 16005KT 3SM BR OVC010=



000
FTUS44 KEWX 300500
TAFDRT
TAF
KDRT 300535Z 3006/0106 13007KT P6SM FEW060=



000
FTUS44 KEWX 300500
TAFSAT
TAF
KSAT 300535Z 3006/0112 VRB03KT P6SM FEW100
     FM301600 14009KT P6SM SCT050
     FM010900 17003KT P6SM BKN015=



000
FTUS44 KEWX 300500
TAFAUS
TAF
KAUS 300535Z 3006/0112 VRB03KT P6SM FEW100
     FM301600 16007KT P6SM SCT050
     FM010900 17003KT 4SM BR BKN015=



000
FTUS44 KEWX 292300
TAFDRT
TAF
KDRT 292320Z 3000/3024 13008KT P6SM FEW060=



000
FTUS44 KEWX 292300
TAFAUS
TAF
KAUS 292320Z 3000/0106 04006KT P6SM FEW050
     FM301600 17008KT P6SM SCT050=



000
FTUS44 KEWX 292300
TAFSAT
TAF
KSAT 292320Z 3000/0106 05006KT P6SM FEW050
     FM301600 16007KT P6SM SCT050=



000
FTUS44 KEWX 291700
TAFAUS
TAF
KAUS 291721Z 2918/3024 03007KT P6SM FEW040 SCT070
     FM300400 10003KT P6SM SCT060
     FM301600 17005KT P6SM SCT050=



000
FTUS44 KEWX 291700
TAFDRT
TAF
KDRT 291721Z 2918/3018 12003KT P6SM OVC060
     FM292000 14006KT P6SM SCT060=



000
FTUS44 KEWX 291700
TAFSAT
TAF
KSAT 291721Z 2918/3024 04007KT P6SM FEW040 SCT070
     FM300400 10004KT P6SM SCT050
     FM301600 16004KT P6SM SCT050=



000
FTUS44 KEWX 291100
TAFDRT
TAF
KDRT 291130Z 2912/3012 08004KT P6SM FEW060
     FM292000 13006KT P6SM SCT060=



000
FTUS44 KEWX 291100
TAFSAT
TAF
KSAT 291130Z 2912/3018 02007KT P6SM SCT070
     FM292000 06007KT P6SM SCT050=



000
FTUS44 KEWX 291100
TAFAUS
TAF
KAUS 291130Z 2912/3018 36006KT P6SM FEW080
     FM291800 08010KT P6SM SCT080=



000
FTUS44 KEWX 290500
TAFSAT
TAF
KSAT 290523Z 2906/3012 02007KT P6SM SCT080=



000
FTUS44 KEWX 290500
TAFDRT
TAF
KDRT 290523Z 2906/3006 11007KT P6SM FEW060=



000
FTUS44 KEWX 290500
TAFAUS
TAF
KAUS 290523Z 2906/3012 35007KT P6SM SCT080=



000
FTUS44 KEWX 282300
TAFAUS
TAF
KAUS 282320Z 2900/3006 02007KT P6SM SCT050=



000
FTUS44 KEWX 282300
TAFDRT
TAF
KDRT 282320Z 2900/2924 13008KT P6SM FEW040=



000
FTUS44 KEWX 282300
TAFSAT
TAF
KSAT 282320Z 2900/3006 06007KT P6SM SCT050=



000
FTUS44 KEWX 281700
TAFAUS
TAF
KAUS 281720Z 2818/2924 02010KT P6SM SCT040
     FM290700 36003KT P6SM SCT050
     FM291600 03008KT P6SM SCT050=



000
FTUS44 KEWX 281700
TAFSAT
TAF
KSAT 281720Z 2818/2924 04010KT P6SM SCT040
     FM290700 36004KT P6SM SCT050
     FM291600 04008KT P6SM SCT050=



000
FTUS44 KEWX 281700
TAFDRT
TAF
KDRT 281720Z 2818/2918 15007KT P6SM FEW035
     FM290300 VRB05KT P6SM SCT050
     FM291600 13006KT P6SM SKC=



000
FTUS44 KEWX 281400 AAA
TAFSAT
TAF AMD
KSAT 281430Z 2815/2918 36007KT P6SM FEW150
     FM281500 03005KT P6SM SCT050
     FM290600 36003KT P6SM SCT050=



000
FTUS44 KEWX 281400 AAA
TAFAUS
TAF AMD
KAUS 281430Z 2815/2918 33003KT 6SM BR BKN080
     FM281500 03008KT P6SM SCT050
     FM290600 36002KT P6SM SCT050=



000
FTUS44 KEWX 281100
TAFDRT
TAF
KDRT 281125Z 2812/2912 06005KT P6SM SKC
     FM281700 13010KT P6SM SCT050=



000
FTUS44 KEWX 281100
TAFSAT
TAF
KSAT 281125Z 2812/2918 VRB04KT P6SM FEW250
     FM281300 VRB03KT 4SM BR FEW010
     FM281500 03005KT P6SM SCT050=



000
FTUS44 KEWX 281100
TAFAUS
TAF
KAUS 281125Z 2812/2918 VRB04KT 6SM BR FEW020
     FM281300 VRB03KT 4SM BR FEW020
     FM281500 03010KT P6SM SCT050=



000
FTUS44 KEWX 281000 AAA
TAFAUS
TAF AMD
KAUS 281030Z 2810/2912 VRB04KT 6SM BR FEW250
     FM281200 VRB03KT 4SM BR FEW010 SCT080
     FM281500 05006KT P6SM SCT080=



000
FTUS44 KEWX 281000 AAA
TAFSAT
TAF AMD
KSAT 281030Z 2810/2912 VRB04KT P6SM FEW250
     FM281200 VRB03KT 4SM BR FEW010 SCT080
     FM281400 03005KT P6SM SCT080=



000
FTUS44 KEWX 280500
TAFAUS
TAF
KAUS 280523Z 2806/2912 VRB04KT P6SM SCT080
     FM280900 VRB03KT 4SM BR FEW010 SCT080
     FM281500 05006KT P6SM SCT080=



000
FTUS44 KEWX 280500
TAFDRT
TAF
KDRT 280523Z 2806/2906 12005KT P6SM FEW080
     FM281300 VRB04KT P6SM BKN025
     FM281700 13009KT P6SM SCT050=



000
FTUS44 KEWX 280500
TAFSAT
TAF
KSAT 280523Z 2806/2912 VRB04KT P6SM FEW090
     FM281000 VRB03KT 4SM BR FEW010 SCT080
     FM281400 03005KT P6SM SCT080=



000
FTUS44 KEWX 272300
TAFAUS
TAF
KAUS 272320Z 2800/2906 02005KT P6SM SCT030 BKN100
     FM281000 VRB03KT 4SM BR FEW010 SCT080
     FM281500 05006KT P6SM SCT080=



000
FTUS44 KEWX 272300
TAFDRT
TAF
KDRT 272320Z 2800/2824 16006KT P6SM SCT080
     FM280700 VRB04KT P6SM FEW015 OVC050
     FM281000 VRB04KT 5SM BR BKN015
     FM281600 13009KT P6SM SCT030=



000
FTUS44 KEWX 272300
TAFSAT
TAF
KSAT 272320Z 2800/2906 07006KT P6SM SCT030 SCT100
     FM281000 VRB03KT 4SM BR FEW010 SCT080
     FM281500 06007KT P6SM SCT080=



    US Dept of Commerce
    National Oceanic and Atmospheric Administration
    National Weather Service
    1325 East West Highway
    Silver Spring, MD 20910
    Page Author: NWS Internet Services Team
Disclaimer
Information Quality
Credits
Glossary
Privacy Policy
Freedom of Information Act (FOIA)
About Us
Career Opportunities